EDHI

Hamburg-Finkenwerder Airport

Hamburg, Germany
METAR EDHI 231350Z 09009KT 060V140 CAVOK 01/M08 Q1027
Observed Flight Rules
Feb-23 @ 13:50 UTC (47 minutes ago) Visual Flight Rules
Wind Visibility Clouds
90° at 9 knots 10,000+ meters
  • Clear skies
Temperatures Readings
Current 1°C / 34°F
Dewpoint -8°C / 18°F
Humidity 51%
Altimeter 30.32" Hg
Pressure 1027 hPa
Elevation 13
METAR EDHI 231350Z 09009KT 060V140 CAVOK 01/M08 Q1027
Observed Flight Rules
Feb-23 @ 13:50 UTC
(47 minutes ago)
VFR
Wind Visibility
90° at 9 knots 10,000+ meters
Clouds
  • Clear skies
Temperature Dewpoint
1°C / 34°F -8°C / 18°F
Humidity Altimeter Pressure
51% 30.32" Hg 1027 hPa